createdAt,value
2023-05-30T00:02:00.736Z,102435.72
2023-05-30T00:06:57.839Z,102437.84
2023-05-30T00:11:55.890Z,102437.22
2023-05-30T00:16:52.732Z,102435.72
2023-05-30T00:21:49.161Z,102434.03
2023-05-30T00:26:46.445Z,102438.59
2023-05-30T00:31:42.809Z,102442.44
2023-05-30T00:36:39.197Z,102432.94
2023-05-30T00:41:35.505Z,102431.31
2023-05-30T00:46:31.992Z,102431.53
2023-05-30T00:51:28.591Z,102431.75
2023-05-30T00:56:24.911Z,102424.06
2023-05-30T01:01:21.542Z,102416.28
2023-05-30T01:06:18.753Z,102424.44
2023-05-30T01:11:25.782Z,102427.34
2023-05-30T01:16:24.525Z,102430.16
2023-05-30T01:21:20.921Z,102432.97
2023-05-30T01:26:36.494Z,102433.16
2023-05-30T01:31:33.285Z,102436.09
2023-05-30T01:36:29.923Z,102428.25
2023-05-30T01:41:30.212Z,102455.88
2023-05-30T01:46:31.116Z,102455.09
2023-05-30T01:51:30.171Z,102458.69
2023-05-30T01:56:27.397Z,102464.16
2023-05-30T02:01:25.301Z,102461.06
2023-05-30T02:06:22.901Z,102463.09
2023-05-30T02:11:19.254Z,102457.09
2023-05-30T02:16:19.911Z,102460.72
2023-05-30T02:21:16.524Z,102470.56
2023-05-30T02:26:12.978Z,102474.25
2023-05-30T02:31:09.324Z,102480.50
2023-05-30T02:36:09.550Z,102480.94
2023-05-30T02:41:06.032Z,102490.09
2023-05-30T02:46:05.171Z,102476.84
2023-05-30T02:51:04.173Z,102490.22
2023-05-30T02:56:00.518Z,102494.69
2023-05-30T03:00:56.980Z,102500.16
2023-05-30T03:05:54.739Z,102494.91
2023-05-30T03:10:51.110Z,102494.91
2023-05-30T03:15:47.714Z,102493.13
2023-05-30T03:20:44.538Z,102492.22
2023-05-30T03:25:41.032Z,102508.16
2023-05-30T03:30:40.083Z,102503.78
2023-05-30T03:35:36.697Z,102507.09
2023-05-30T03:40:33.079Z,102514.88
2023-05-30T03:45:29.551Z,102516.44
2023-05-30T03:50:25.980Z,102526.19
2023-05-30T03:55:22.429Z,102523.97
2023-05-30T04:00:19.191Z,102514.91
2023-05-30T04:05:15.799Z,102527.00
2023-05-30T04:10:14.319Z,102519.53
2023-05-30T04:15:11.164Z,102520.78
2023-05-30T04:20:10.115Z,102529.16
2023-05-30T04:25:06.837Z,102528.78
2023-05-30T04:30:03.876Z,102541.53
2023-05-30T04:35:02.138Z,102545.00
2023-05-30T04:39:59.024Z,102550.13
2023-05-30T04:44:55.820Z,102538.34
2023-05-30T04:49:54.686Z,102533.66
2023-05-30T04:54:51.105Z,102545.63
2023-05-30T04:59:47.502Z,102546.91
2023-05-30T05:04:44.297Z,102543.22
2023-05-30T05:09:40.741Z,102552.16
2023-05-30T05:14:38.462Z,102555.53
2023-05-30T05:19:36.066Z,102563.81
2023-05-30T05:24:32.523Z,102570.34
2023-05-30T05:29:28.947Z,102574.66
2023-05-30T05:34:27.132Z,102574.09
2023-05-30T05:39:23.544Z,102570.81
2023-05-30T05:44:19.977Z,102574.34
2023-05-30T05:49:16.436Z,102582.47
2023-05-30T05:54:13.213Z,102580.59
2023-05-30T05:59:09.759Z,102582.19
2023-05-30T06:04:12.754Z,102582.81
2023-05-30T06:09:09.198Z,102590.09
2023-05-30T06:14:08.882Z,102587.44
2023-05-30T06:19:05.344Z,102575.81
2023-05-30T06:24:02.084Z,102583.75
2023-05-30T06:28:59.191Z,102583.34
2023-05-30T06:33:55.734Z,102594.00
2023-05-30T06:38:54.822Z,102592.16
2023-05-30T06:43:51.220Z,102593.66
2023-05-30T06:48:47.984Z,102607.50
2023-05-30T06:53:44.564Z,102610.75
2023-05-30T06:58:42.082Z,102604.50
2023-05-30T07:03:38.564Z,102600.19
2023-05-30T07:08:34.921Z,102601.38
2023-05-30T07:13:32.435Z,102613.16
2023-05-30T07:18:32.024Z,102609.25
2023-05-30T07:23:28.704Z,102605.56
2023-05-30T07:28:25.217Z,102609.38
2023-05-30T07:33:21.641Z,102612.69
2023-05-30T07:38:19.322Z,102612.53
2023-05-30T07:43:16.215Z,102618.44
2023-05-30T07:48:15.751Z,102623.88
2023-05-30T07:53:12.238Z,102629.34
2023-05-30T07:58:08.929Z,102623.94
2023-05-30T08:03:05.989Z,102634.00
2023-05-30T08:08:02.644Z,102633.56
2023-05-30T08:12:59.141Z,102626.03
2023-05-30T08:17:57.962Z,102621.31
2023-05-30T08:22:55.017Z,102620.88
2023-05-30T08:27:52.679Z,102615.13
2023-05-30T08:32:49.142Z,102609.22
2023-05-30T08:37:47.501Z,102622.03
2023-05-30T08:42:44.852Z,102622.38
2023-05-30T08:47:41.593Z,102628.50
2023-05-30T08:52:38.029Z,102628.31
2023-05-30T08:57:43.798Z,102632.38
2023-05-30T09:02:40.564Z,102633.53
2023-05-30T09:07:36.952Z,102628.66
2023-05-30T09:12:33.289Z,102629.19
2023-05-30T09:17:29.675Z,102636.88
2023-05-30T09:22:27.718Z,102639.97
2023-05-30T09:27:24.296Z,102635.06
2023-05-30T09:32:22.046Z,102637.47
2023-05-30T09:37:18.373Z,102642.56
2023-05-30T09:42:14.729Z,102651.19
2023-05-30T09:47:11.270Z,102649.97
2023-05-30T09:52:07.636Z,102654.25
2023-05-30T09:57:04.223Z,102661.22
2023-05-30T10:02:01.070Z,102657.41
2023-05-30T10:07:01.315Z,102668.56
2023-05-30T10:11:58.033Z,102673.34
2023-05-30T10:16:54.977Z,102669.53
2023-05-30T10:21:53.199Z,102674.81
2023-05-30T10:27:00.717Z,102670.88
2023-05-30T10:31:57.146Z,102673.03
2023-05-30T10:36:54.213Z,102671.03
2023-05-30T10:42:01.850Z,102664.53
2023-05-30T10:47:08.287Z,102665.28
2023-05-30T10:52:07.829Z,102669.41
2023-05-30T10:57:36.152Z,102663.69
2023-05-30T11:02:36.563Z,102652.97
2023-05-30T11:07:34.100Z,102656.22
2023-05-30T11:12:31.060Z,102656.22
2023-05-30T11:17:36.955Z,102646.44
2023-05-30T11:22:33.605Z,102637.06
2023-05-30T11:27:30.680Z,102635.63
2023-05-30T11:32:30.155Z,102638.59
2023-05-30T11:37:36.426Z,102641.84
2023-05-30T11:42:33.357Z,102642.25
2023-05-30T11:52:28.985Z,102644.88
2023-05-30T11:57:25.456Z,102657.84
2023-05-30T12:02:21.826Z,102654.84
2023-05-30T12:07:27.505Z,102647.25
2023-05-30T12:12:32.347Z,102640.22
2023-05-30T12:17:29.337Z,102642.28
2023-05-30T12:22:25.826Z,102639.50
2023-05-30T12:27:24.329Z,102633.66
2023-05-30T12:32:24.563Z,102641.03
2023-05-30T12:37:21.177Z,102643.09
2023-05-30T12:42:36.139Z,102637.31
2023-05-30T12:47:35.018Z,102632.19
2023-05-30T12:52:31.509Z,102622.53
2023-05-30T12:57:28.510Z,102627.47
2023-05-30T13:02:29.515Z,102623.63
2023-05-30T13:07:28.084Z,102626.88
2023-05-30T13:12:24.496Z,102624.19
2023-05-30T13:17:21.006Z,102632.66
2023-05-30T13:22:17.533Z,102641.81
2023-05-30T13:27:14.008Z,102644.16
2023-05-30T13:32:10.667Z,102639.88
2023-05-30T13:37:18.654Z,102635.69
2023-05-30T13:42:30.245Z,102634.31
2023-05-30T13:47:26.618Z,102632.16
2023-05-30T13:52:23.230Z,102634.19
2023-05-30T13:57:19.662Z,102636.56
2023-05-30T14:02:16.285Z,102637.88
2023-05-30T14:07:14.247Z,102640.78
2023-05-30T14:12:11.252Z,102634.84
2023-05-30T14:17:11.014Z,102643.31
2023-05-30T14:22:09.596Z,102647.00
2023-05-30T14:27:07.575Z,102641.06
2023-05-30T14:32:15.271Z,102624.63
2023-05-30T14:37:11.790Z,102635.91
2023-05-30T14:42:08.390Z,102624.69
2023-05-30T14:47:05.036Z,102627.72
2023-05-30T14:52:01.673Z,102624.38
2023-05-30T14:56:58.259Z,102610.19
2023-05-30T15:01:55.810Z,102606.50
2023-05-30T15:06:52.713Z,102601.88
2023-05-30T15:11:49.214Z,102608.16
2023-05-30T15:16:45.755Z,102601.69
2023-05-30T15:21:44.367Z,102593.19
2023-05-30T15:26:40.911Z,102598.88
2023-05-30T15:31:37.380Z,102597.81
2023-05-30T15:36:40.788Z,102607.06
2023-05-30T15:41:37.511Z,102595.78
2023-05-30T15:46:34.247Z,102606.53
2023-05-30T15:51:31.639Z,102607.19
2023-05-30T15:56:28.284Z,102605.00
2023-05-30T16:01:26.084Z,102606.44
2023-05-30T16:06:22.737Z,102596.53
2023-05-30T16:11:21.770Z,102599.66
2023-05-30T16:16:18.292Z,102590.72
2023-05-30T16:27:15.877Z,102564.59
2023-05-30T16:33:53.802Z,102562.56
2023-05-30T20:13:29.581Z,102637.38
2023-05-30T20:44:19.442Z,102649.91
2023-05-30T20:59:40.873Z,102637.72
2023-05-30T21:15:01.928Z,102664.78
2023-05-30T22:37:58.793Z,102689.88
2023-05-30T23:14:12.529Z,102685.56
2023-05-30T23:29:44.136Z,102676.66
2023-05-30T23:34:42.785Z,102660.63
2023-05-30T23:40:08.241Z,102673.69
2023-05-30T23:45:25.319Z,102648.81
2023-05-30T23:50:22.180Z,102674.44
2023-05-30T23:55:23.717Z,102638.94
